• Join FlightAware (Why Join?)
  • Login
  • US Flag 
Gobble Gobble! 
12:52PM EST


 

Airport Tracker/Info


-or-


 

Live Flight TrackerFlight Track Log ✈ UAL900 ✈ 12-May-2013 ✈ KSFO - EDDF / FRA

Flight Track Log - Related Links

Times and Time Zones

All times are in EDT time to prevent confusion due to time zone crossing. See the UAL900 flight status page for this flight to view local times or setup timezone preferences in your user account.

Time Position Orientation Groundspeed Altitude Reporting Facility
EDT Latitude Longitude Course Direction KTS MPH feet Rate Location/Type
06:05PM 37.9777 -122.1989 North  Level FlightAware Approximate
06:06PM 38.1165 -122.1850 North  Level FlightAware Approximate
06:06PM 37.7780 -122.5980 North 312 359 5,500  Level FlightAware
06:06PM 37.7910 -122.5880 31° Northeast 319 367 5,800 2,160 Climbing FlightAware
06:07PM 37.8130 -122.5620 43° Northeast 323 372 6,600 2,100 Climbing FlightAware
06:07PM 37.8370 -122.5310 46° Northeast 331 381 7,400 2,160 Climbing FlightAware
06:07PM 37.8690 -122.4920 44° Northeast 338 389 8,600 2,700 Climbing FlightAware
06:08PM 37.9040 -122.4570 38° Northeast 335 386 9,900 2,100 Climbing FlightAware
06:09PM 37.9660 -122.4400 12° North 361 415 10,900 1,260 Climbing FlightAware
06:09PM 38.0430 -122.4300 North 398 458 11,700 1,440 Climbing FlightAware
06:10PM 38.1160 -122.4020 17° North 414 476 13,000 2,040 Climbing FlightAware
06:11PM 38.1990 -122.3700 17° North 422 486 14,600 2,040 Climbing FlightAware
06:11PM 38.2770 -122.3410 16° North 434 499 15,900 1,860 Climbing FlightAware
06:12PM 38.3540 -122.3130 16° North 441 507 17,100 1,680 Climbing FlightAware
06:13PM 38.4420 -122.2800 16° North 454 522 18,300 1,500 Climbing FlightAware
06:13PM 38.5230 -122.2490 17° North 466 536 19,300 1,500 Climbing FlightAware
06:14PM 38.6200 -122.2130 16° North 475 547 20,500 1,500 Climbing FlightAware
06:15PM 38.7060 -122.1810 16° North 482 555 21,500 1,380 Climbing FlightAware
06:16PM 38.7910 -122.1490 16° North 491 565 22,400 1,320 Climbing FlightAware
06:16PM 38.8890 -122.1110 17° North 498 573 23,400 1,320 Climbing FlightAware
06:17PM 38.9780 -122.0780 16° North 504 580 24,300 1,320 Climbing FlightAware
06:18PM 39.0790 -122.0390 17° North 509 586 25,300 1,260 Climbing FlightAware
06:18PM 39.1560 -122.0100 16° North 513 590 26,000 1,080 Climbing FlightAware
06:19PM 39.2600 -121.9700 17° North 518 596 26,800 1,080 Climbing FlightAware
06:20PM 39.3670 -121.9290 17° North 522 601 27,700 1,020 Climbing FlightAware
06:20PM 39.4600 -121.8930 17° North 527 606 28,300 1,080 Climbing FlightAware
06:21PM 39.5540 -121.8570 16° North 527 606 29,200 1,320 Climbing FlightAware
06:22PM 39.6570 -121.8160 17° North 525 604 30,200 1,260 Climbing FlightAware
06:23PM 39.7630 -121.7760 16° North 519 597 31,100 1,200 Climbing FlightAware
06:23PM 39.8560 -121.7400 17° North 516 594 31,900 660 Climbing FlightAware
06:24PM 39.9470 -121.7040 17° North 516 594 32,000 60 Climbing FlightAware
06:25PM 40.0410 -121.6670 17° North 507 583 32,000  Level FlightAware
06:25PM 40.1330 -121.6310 17° North 506 582 32,000  Level FlightAware
06:26PM 40.2340 -121.5910 17° North 508 585 32,000  Level FlightAware
06:27PM 40.3250 -121.5550 17° North 517 595 32,000  Level FlightAware
06:27PM 40.4180 -121.5180 17° North 519 597 32,000  Level FlightAware
06:28PM 40.5190 -121.4780 17° North 520 598 32,000  Level FlightAware
06:29PM 40.6130 -121.4400 17° North 520 598 32,000  Level FlightAware
06:30PM 40.7170 -121.3980 17° North 522 601 32,000  Level FlightAware
06:30PM 40.8080 -121.3610 17° North 520 598 32,000  Level FlightAware
06:31PM 40.8890 -121.3290 17° North 525 604 32,000  Level FlightAware
06:32PM 40.9930 -121.2860 17° North 519 597 32,000  Level FlightAware
06:32PM 41.0810 -121.2510 17° North 525 604 32,000  Level FlightAware
06:33PM 41.1940 -121.2050 17° North 527 606 32,000  Level FlightAware
06:34PM 41.2760 -121.1720 17° North 524 603 32,000  Level FlightAware
06:34PM 41.3880 -121.1250 17° North 528 608 32,000  Level FlightAware
06:35PM 41.4860 -121.0850 17° North 528 608 32,000  Level FlightAware
06:36PM 41.5870 -121.0440 17° North 528 608 32,000  Level FlightAware
06:37PM 41.6850 -121.0030 17° North 529 609 32,000  Level FlightAware
06:38PM 41.8200 -120.9470 17° North 528 608 32,000  Level FlightAware
06:38PM 41.9140 -120.9080 17° North 529 609 32,000  Level FlightAware
06:39PM 42.0070 -120.8690 17° North 531 611 32,000  Level FlightAware
06:40PM 42.1190 -120.8220 17° North 531 611 32,000  Level FlightAware
06:40PM 42.1860 -120.7940 17° North 529 609 32,000  Level FlightAware
06:41PM 42.3130 -120.7410 17° North 530 610 32,000  Level FlightAware
06:42PM 42.3840 -120.7100 18° North 529 609 32,000  Level FlightAware
06:42PM 42.4990 -120.6610 17° North 529 609 32,000  Level FlightAware
06:43PM 42.5980 -120.6200 17° North 529 609 32,000  Level FlightAware
06:44PM 42.6780 -120.5870 17° North 529 609 32,000  Level FlightAware
06:45PM 42.8000 -120.5330 18° North 531 611 32,000  Level FlightAware
06:45PM 42.8620 -120.5060 18° North 532 612 32,000  Level FlightAware
06:46PM 42.9600 -120.4630 18° North 532 612 32,000  Level FlightAware
06:47PM 43.0590 -120.4180 18° North 532 612 32,000  Level FlightAware
06:47PM 43.1390 -120.3830 18° North 532 612 32,000  Level FlightAware
06:48PM 43.2180 -120.3470 18° North 532 612 32,000  Level FlightAware
06:49PM 43.2980 -120.3120 18° North 532 612 32,000  Level FlightAware
06:49PM 43.3980 -120.2670 18° North 532 612 32,000  Level FlightAware
06:50PM 43.4770 -120.2320 18° North 532 612 32,000  Level FlightAware
06:51PM 43.5570 -120.1960 18° North 532 612 32,000  Level FlightAware
06:51PM 43.6360 -120.1600 18° North 532 612 32,000  Level FlightAware
06:52PM 43.7160 -120.1250 18° North 532 612 32,000  Level FlightAware
06:53PM 43.7950 -120.0890 18° North 532 612 32,000  Level FlightAware
06:54PM 43.8950 -120.0440 18° North 532 612 32,000  Level FlightAware
06:54PM 43.9750 -120.0080 18° North 532 612 32,000  Level FlightAware
06:55PM 44.0540 -119.9720 18° North 532 612 32,000  Level FlightAware
06:55PM 44.3008 -119.8694 18° North 537 618 32,000  Level Seattle Center
06:56PM 44.4411 -119.8056 18° North 535 616 32,000  Level Seattle Center
07:02PM 45.3260 -119.4920 18° North 536 617 32,000  Level FlightAware
07:03PM 45.4380 -119.4550 13° North 538 619 32,000  Level FlightAware
07:04PM 45.5330 -119.4240 13° North 538 619 32,000  Level FlightAware
07:04PM 45.6420 -119.3880 13° North 538 619 32,000  Level FlightAware
07:05PM 45.7370 -119.3560 13° North 539 620 32,000  Level FlightAware
07:06PM 45.8500 -119.3180 13° North 538 619 32,000  Level FlightAware
07:06PM 45.9440 -119.2860 13° North 536 617 32,000  Level FlightAware
07:07PM 46.0420 -119.2530 13° North 536 617 32,000  Level FlightAware
07:08PM 46.1480 -119.2180 13° North 535 616 32,000  Level FlightAware
07:09PM 46.2600 -119.1800 13° North 535 616 32,000  Level FlightAware
07:09PM 46.3550 -119.1470 13° North 536 617 32,000  Level FlightAware
07:10PM 46.4520 -119.1140 13° North 535 616 32,000  Level FlightAware
07:11PM 46.5590 -119.0770 13° North 534 615 32,000  Level FlightAware
07:11PM 46.6550 -119.0440 13° North 533 613 32,000  Level FlightAware
07:12PM 46.7640 -119.0070 13° North 532 612 32,000  Level FlightAware
07:13PM 46.8580 -118.9740 13° North 533 613 32,000  Level FlightAware
07:13PM 46.9550 -118.9400 13° North 532 612 32,000  Level FlightAware
07:14PM 47.0600 -118.8970 16° North 536 617 32,000  Level FlightAware
07:15PM 47.1570 -118.8530 17° North 538 619 32,000  Level FlightAware
07:16PM 47.2650 -118.8030 17° North 538 619 32,000  Level FlightAware
07:16PM 47.3610 -118.7590 17° North 539 620 32,000  Level FlightAware
07:17PM 47.4550 -118.7160 17° North 539 620 32,000  Level FlightAware
07:18PM 47.5610 -118.6670 17° North 541 623 32,000  Level FlightAware
07:18PM 47.6540 -118.6240 17° North 543 625 32,000  Level FlightAware
07:19PM 47.7660 -118.5710 18° North 544 626 32,000  Level FlightAware
07:20PM 47.8520 -118.5320 17° North 544 626 32,000  Level FlightAware
07:20PM 47.9340 -118.4950 17° North 544 626 32,000  Level FlightAware
07:21PM 48.0150 -118.4570 17° North 544 626 32,000  Level FlightAware
07:22PM 48.0970 -118.4200 17° North 544 626 32,000  Level FlightAware
07:23PM 48.1990 -118.3730 17° North 544 626 32,000  Level FlightAware
07:23PM 48.2810 -118.3350 17° North 544 626 32,000  Level FlightAware
07:24PM 48.3630 -118.2980 17° North 544 626 32,000  Level FlightAware
07:25PM 48.4450 -118.2600 17° North 544 626 32,000  Level FlightAware
07:25PM 48.5270 -118.2220 17° North 544 626 32,000  Level FlightAware
07:26PM 48.6290 -118.1750 17° North 544 626 32,000 60 Level FlightAware
07:27PM 48.8550 -118.0500 20° North 547 629 32,100 300 Climbing FlightAware
07:27PM 48.9600 -117.9950 19° North 551 634 32,400 300 Climbing FlightAware
07:28PM 49.0340 -117.9480 23° Northeast 557 641 32,600 240 Climbing FlightAware
07:29PM 49.1560 -117.8650 24° Northeast 558 642 32,800 240 Climbing FlightAware
07:30PM 49.2700 -117.7850 25° Northeast 553 636 33,000 120 Climbing FlightAware
07:31PM 49.3790 -117.7080 25° Northeast 552 635 33,000  Level FlightAware
07:31PM 49.4530 -117.6580 24° Northeast 552 635 33,000  Level FlightAware
07:32PM 49.5320 -117.6040 24° Northeast 552 635 33,000  Level FlightAware
07:33PM 49.6310 -117.5360 24° Northeast 552 635 33,000  Level FlightAware
07:33PM 49.7100 -117.4810 24° Northeast 552 635 33,000  Level FlightAware
07:34PM 49.7900 -117.4260 24° Northeast 552 635 33,000  Level FlightAware
07:35PM 49.8690 -117.3720 24° Northeast 552 635 33,000  Level FlightAware
07:35PM 50.0590 -117.2260 26° Northeast 550 633 33,000  Level FlightAware
07:36PM 50.1560 -117.1560 25° Northeast 548 631 33,000  Level FlightAware
07:37PM 50.2580 -117.0820 25° Northeast 548 631 33,000  Level FlightAware
07:38PM 50.3630 -117.0060 25° Northeast 550 633 33,000  Level FlightAware
07:38PM 50.4580 -116.9360 25° Northeast 551 634 33,000  Level FlightAware
07:39PM 50.5610 -116.8590 25° Northeast 551 634 33,000  Level FlightAware
07:40PM 50.6540 -116.7910 25° Northeast 551 634 33,000  Level FlightAware
07:40PM 50.7480 -116.7210 25° Northeast 549 632 33,000  Level FlightAware
07:41PM 50.8520 -116.6440 25° Northeast 555 639 33,000  Level FlightAware
07:42PM 50.9450 -116.5730 26° Northeast 556 640 33,000  Level FlightAware
07:42PM 51.0360 -116.4980 27° Northeast 560 644 33,000  Level FlightAware
07:43PM 51.1370 -116.4130 28° Northeast 559 643 33,000  Level FlightAware
07:44PM 51.2300 -116.3360 27° Northeast 559 643 33,000  Level FlightAware
07:45PM 51.3330 -116.2510 27° Northeast 563 648 33,000  Level FlightAware
07:45PM 51.4170 -116.1800 28° Northeast 560 644 33,000  Level FlightAware
07:46PM 51.5170 -116.0960 28° Northeast 561 646 33,000  Level FlightAware
07:47PM 51.6220 -116.0080 27° Northeast 561 646 33,000  Level FlightAware
07:47PM 51.7120 -115.9320 28° Northeast 546 628 33,000  Level FlightAware
07:48PM 51.8130 -115.8460 28° Northeast 547 629 33,000  Level FlightAware
07:49PM 51.9050 -115.7680 28° Northeast 547 629 33,000  Level FlightAware
07:49PM 51.9940 -115.6910 28° Northeast 544 626 33,000  Level FlightAware
07:50PM 52.0960 -115.6030 28° Northeast 547 629 33,000  Level FlightAware
07:51PM 52.1830 -115.5270 28° Northeast 544 626 33,000  Level FlightAware
07:52PM 52.2840 -115.4390 28° Northeast 533 613 33,000  Level FlightAware
07:52PM 52.3770 -115.3580 28° Northeast 547 629 33,000  Level FlightAware
07:54PM 52.5650 -115.1920 28° Northeast 552 635 33,000  Level FlightAware
07:55PM 52.7220 -115.0520 28° Northeast 547 629 33,000  Level FlightAware
07:55PM 52.8000 -114.9810 29° Northeast 547 629 33,000  Level FlightAware
07:56PM 52.8890 -114.9020 28° Northeast 546 628 33,000  Level FlightAware
07:57PM 53.0430 -114.7620 29° Northeast 546 628 33,000  Level FlightAware
07:58PM 53.2090 -114.6100 29° Northeast 551 634 33,000  Level FlightAware
08:00PM 53.3660 -114.4650 29° Northeast 552 635 33,000  Level FlightAware
08:01PM 53.5260 -114.3160 29° Northeast 550 633 33,000  Level FlightAware
08:02PM 53.6780 -114.1740 29° Northeast 552 635 33,000 180 Level FlightAware
08:03PM 53.8430 -114.0170 29° Northeast 534 615 33,500 480 Climbing FlightAware
08:04PM 53.9970 -113.8710 29° Northeast 550 633 34,200 600 Climbing FlightAware
08:06PM 54.1610 -113.7120 30° Northeast 551 634 35,000 300 Climbing FlightAware
08:07PM 54.3120 -113.5660 29° Northeast 542 624 35,000  Level FlightAware
08:08PM 54.4260 -113.4530 30° Northeast 542 624 35,000  Level FlightAware
08:09PM 54.5960 -113.2860 30° Northeast 542 624 35,000  Level FlightAware
08:10PM 54.6700 -113.2120 30° Northeast 542 624 35,000  Level FlightAware
08:10PM 54.8010 -113.0810 30° Northeast 554 638 35,000  Level FlightAware
08:11PM 54.8740 -113.0080 30° Northeast 554 638 35,000  Level FlightAware
08:12PM 54.9490 -112.9320 30° Northeast 554 638 35,000  Level FlightAware
08:13PM 55.0440 -112.8380 30° Northeast 554 638 35,000  Level FlightAware
08:13PM 55.1190 -112.7610 30° Northeast 554 638 35,000  Level FlightAware
08:14PM 55.1940 -112.6850 30° Northeast 554 638 35,000  Level FlightAware
08:15PM 55.2700 -112.6090 30° Northeast 554 638 35,000  Level FlightAware
08:15PM 55.3450 -112.5320 30° Northeast 554 638 35,000  Level FlightAware
08:16PM 55.4210 -112.4550 30° Northeast 554 638 35,000  Level FlightAware
08:17PM 55.5150 -112.3590 30° Northeast 554 638 35,000  Level FlightAware
08:17PM 55.5910 -112.2820 30° Northeast 554 638 35,000  Level FlightAware
08:18PM 55.6850 -112.1860 30° Northeast 554 638 35,000  Level FlightAware
08:19PM 55.7600 -112.1080 30° Northeast 554 638 35,000  Level FlightAware
08:20PM 55.8360 -112.0310 30° Northeast 554 638 35,000  Level FlightAware
08:20PM 55.9110 -111.9530 30° Northeast 554 638 35,000  Level FlightAware
08:21PM 56.1667 -111.6333 30° Northeast 560 644 35,000  Level Edmonton Center
08:22PM 56.2833 -111.5000 32° Northeast 560 644 35,000  Level Edmonton Center
08:23PM 56.4333 -111.3500 29° Northeast 560 644 35,000  Level Edmonton Center
08:24PM 56.5833 -111.2167 26° Northeast 560 644 35,000  Level Edmonton Center
08:25PM 56.6833 -111.0167 48° Northeast 570 656 35,000  Level Edmonton Center
08:26PM 56.8167 -110.8167 39° Northeast 570 656 35,000  Level Edmonton Center
08:27PM 56.9167 -110.5833 52° Northeast 570 656 35,000  Level Edmonton Center
08:28PM 57.0333 -110.3833 43° Northeast 570 656 35,000  Level Edmonton Center
08:29PM 57.1500 -110.1833 43° Northeast 570 656 35,000  Level Edmonton Center
08:30PM 57.2667 -109.9500 47° Northeast 570 656 35,000  Level Edmonton Center
08:31PM 57.3667 -109.7500 47° Northeast 570 656 35,000  Level Edmonton Center
08:32PM 57.4833 -109.5333 45° Northeast 570 656 35,000  Level Edmonton Center
08:33PM 57.6000 -109.3333 43° Northeast 560 644 35,000  Level Edmonton Center
08:34PM 57.7000 -109.0833 53° Northeast 560 644 35,000  Level Edmonton Center
08:35PM 57.8167 -108.8833 42° Northeast 560 644 35,000  Level Edmonton Center
08:36PM 57.9167 -108.6667 49° Northeast 560 644 35,000  Level Edmonton Center
08:37PM 58.0333 -108.4500 44° Northeast 550 633 35,000  Level Edmonton Center
08:38PM 58.1167 -108.2333 54° Northeast 550 633 35,000  Level Edmonton Center
08:39PM 58.2333 -108.0167 44° Northeast 550 633 35,000  Level Edmonton Center
08:40PM 58.3333 -107.8000 49° Northeast 550 633 35,000  Level Edmonton Center
08:41PM 58.4333 -107.5833 49° Northeast 550 633 35,000  Level Edmonton Center
08:42PM 58.5500 -107.3667 44° Northeast 550 633 35,000  Level Edmonton Center
08:43PM 58.6500 -107.1500 48° Northeast 550 633 35,000  Level Edmonton Center
08:44PM 58.7500 -106.9167 50° Northeast 550 633 35,000  Level Edmonton Center
08:45PM 58.8667 -106.7000 44° Northeast 550 633 35,000  Level Edmonton Center
08:46PM 58.9667 -106.4667 50° Northeast 540 621 35,000  Level Edmonton Center
08:47PM 59.0500 -106.2500 53° Northeast 540 621 35,000  Level Edmonton Center
08:48PM 59.1500 -106.0167 50° Northeast 540 621 35,000  Level Edmonton Center
08:49PM 59.2667 -105.7833 46° Northeast 530 610 35,000  Level Edmonton Center
08:50PM 59.3667 -105.5500 50° Northeast 540 621 35,000  Level Edmonton Center
08:51PM 59.4500 -105.3333 53° Northeast 540 621 35,000  Level Edmonton Center
08:52PM 59.5500 -105.1333 45° Northeast 540 621 35,000  Level Edmonton Center
08:53PM 59.6500 -104.8833 52° Northeast 540 621 35,000  Level Edmonton Center
08:54PM 59.7500 -104.6500 50° Northeast 540 621 35,000  Level Edmonton Center
08:55PM 59.8333 -104.4167 55° Northeast 540 621 35,000  Level Edmonton Center
08:56PM 59.9333 -104.1833 49° Northeast 540 621 35,000  Level Edmonton Center
08:57PM 60.0333 -103.9333 51° Northeast 540 621 35,000  Level Edmonton Center
08:58PM 60.1333 -103.7000 49° Northeast 540 621 35,000  Level Edmonton Center
08:59PM 60.2167 -103.4500 56° Northeast 540 621 35,000  Level Edmonton Center
09:00PM 60.3167 -103.2167 49° Northeast 540 621 35,000  Level Edmonton Center
09:01PM 60.4167 -103.0000 47° Northeast 540 621 35,000  Level Edmonton Center
09:02PM 60.5000 -102.7500 56° Northeast 530 610 35,000  Level Edmonton Center
09:03PM 60.6000 -102.5000 51° Northeast 530 610 35,000  Level Edmonton Center
09:04PM 60.7000 -102.2500 51° Northeast 530 610 35,000  Level Edmonton Center
09:05PM 60.7833 -102.0000 56° Northeast 530 610 35,000  Level Edmonton Center
09:06PM 60.8667 -101.7500 56° Northeast 530 610 35,000  Level Edmonton Center
09:07PM 60.9667 -101.5000 50° Northeast 530 610 35,000  Level Edmonton Center
09:08PM 61.0667 -101.2667 48° Northeast 530 610 35,000  Level Edmonton Center
09:09PM 61.1333 -101.0167 61° Northeast 530 610 35,000  Level Edmonton Center
09:10PM 61.2000 -100.7333 64° Northeast 540 621 35,000  Level Edmonton Center
09:11PM 61.2667 -100.4333 65° Northeast 540 621 35,000  Level Edmonton Center
09:12PM 61.3500 -100.1833 55° Northeast 540 621 35,000  Level Edmonton Center
09:13PM 61.4167 -99.8833 65° Northeast 530 610 35,000  Level Edmonton Center
09:15PM 61.4892 -99.4119 72° East  Level FlightAware Approximate
09:22PM 61.7785 -97.3880 72° East  Level FlightAware Approximate
09:23PM 61.8174 -97.0959 74° East  Level FlightAware Approximate
09:24PM 61.8557 -96.8030 74° East  Level FlightAware Approximate
09:25PM 61.8933 -96.5093 75° East  Level FlightAware Approximate
09:26PM 61.9303 -96.2150 75° East  Level FlightAware Approximate
09:27PM 61.9667 -95.9200 75° East  Level FlightAware Approximate
09:28PM 62.0025 -95.6242 75° East  Level FlightAware Approximate
09:29PM 62.0376 -95.3278 76° East  Level FlightAware Approximate
09:30PM 62.0721 -95.0306 76° East  Level FlightAware Approximate
09:31PM 62.1059 -94.7328 76° East  Level FlightAware Approximate
09:32PM 62.1391 -94.4344 76° East  Level FlightAware Approximate
09:33PM 62.1716 -94.1353 77° East  Level FlightAware Approximate
09:34PM 62.2035 -93.8356 77° East  Level FlightAware Approximate
09:35PM 62.2348 -93.5352 77° East  Level FlightAware Approximate
09:36PM 62.2654 -93.2342 78° East  Level FlightAware Approximate
09:37PM 62.2954 -92.9327 78° East  Level FlightAware Approximate
09:38PM 62.3247 -92.6305 78° East  Level FlightAware Approximate
09:39PM 62.3533 -92.3277 78° East  Level FlightAware Approximate
09:40PM 62.3813 -92.0244 79° East  Level FlightAware Approximate
09:41PM 62.4086 -91.7205 79° East  Level FlightAware Approximate
09:42PM 62.4353 -91.4161 79° East  Level FlightAware Approximate
09:43PM 62.4613 -91.1111 79° East  Level FlightAware Approximate
09:44PM 62.4866 -90.8056 80° East  Level FlightAware Approximate
09:45PM 62.5113 -90.4996 80° East  Level FlightAware Approximate
09:46PM 62.5353 -90.1931 80° East  Level FlightAware Approximate
09:47PM 62.5653 -89.8878 73° East  Level FlightAware Approximate
09:48PM 62.6057 -89.5889 74° East  Level FlightAware Approximate
09:49PM 62.6454 -89.2891 74° East  Level FlightAware Approximate
09:50PM 62.6834 -88.9974 74° East  Level FlightAware Approximate
09:51PM 62.7207 -88.7049 74° East  Level FlightAware Approximate
09:52PM 62.7575 -88.4116 75° East  Level FlightAware Approximate
09:53PM 62.7936 -88.1177 75° East  Level FlightAware Approximate
09:54PM 62.8291 -87.8230 75° East  Level FlightAware Approximate
09:55PM 62.8640 -87.5276 75° East  Level FlightAware Approximate
09:56PM 62.8983 -87.2316 76° East  Level FlightAware Approximate
09:57PM 62.9319 -86.9348 76° East  Level FlightAware Approximate
09:58PM 62.9650 -86.6374 76° East  Level FlightAware Approximate
09:59PM 62.9973 -86.3393 76° East  Level FlightAware Approximate
10:00PM 63.0291 -86.0405 77° East  Level FlightAware Approximate
10:01PM 63.0603 -85.7411 77° East  Level FlightAware Approximate
10:02PM 63.0908 -85.4411 77° East  Level FlightAware Approximate
10:03PM 63.1206 -85.1404 77° East  Level FlightAware Approximate
10:04PM 63.1499 -84.8391 78° East  Level FlightAware Approximate
10:05PM 63.1785 -84.5373 78° East  Level FlightAware Approximate
10:06PM 63.2064 -84.2348 78° East  Level FlightAware Approximate
10:07PM 63.2337 -83.9318 79° East  Level FlightAware Approximate
10:08PM 63.2604 -83.6282 79° East  Level FlightAware Approximate
10:09PM 63.2864 -83.3240 79° East  Level FlightAware Approximate
10:10PM 63.3117 -83.0193 79° East  Level FlightAware Approximate
10:11PM 63.3365 -82.7141 80° East  Level FlightAware Approximate
10:12PM 63.3605 -82.4083 80° East  Level FlightAware Approximate
10:13PM 63.3839 -82.1021 80° East  Level FlightAware Approximate
10:14PM 63.4067 -81.7953 80° East  Level FlightAware Approximate
10:15PM 63.4288 -81.4881 81° East  Level FlightAware Approximate
10:16PM 63.4502 -81.1804 82° East  Level FlightAware Approximate
10:17PM 63.4699 -80.8719 82° East  Level FlightAware Approximate
10:18PM 63.4890 -80.5630 82° East  Level FlightAware Approximate
10:19PM 63.5074 -80.2537 82° East  Level FlightAware Approximate
10:20PM 63.5252 -79.9440 83° East  Level FlightAware Approximate
10:21PM 63.5422 -79.6339 83° East  Level FlightAware Approximate
10:22PM 63.5586 -79.3234 83° East  Level FlightAware Approximate
10:23PM 63.5744 -79.0126 83° East  Level FlightAware Approximate
10:24PM 63.5894 -78.7015 84° East  Level FlightAware Approximate
10:25PM 63.6038 -78.3901 84° East  Level FlightAware Approximate
10:26PM 63.6175 -78.0783 84° East  Level FlightAware Approximate
10:27PM 63.6305 -77.7663 84° East  Level FlightAware Approximate
10:28PM 63.6429 -77.4539 85° East  Level FlightAware Approximate
10:29PM 63.6546 -77.1413 85° East  Level FlightAware Approximate
10:30PM 63.6656 -76.8285 85° East  Level FlightAware Approximate
10:31PM 63.6759 -76.5154 86° East  Level FlightAware Approximate
10:31PM 64.0167 -75.9667 87° East 520 598 35,000  Level Gander Center
10:32PM 63.6855 -76.2021 86° East  Level FlightAware Approximate
10:32PM 64.0333 -75.8000 77° East 530 610 35,000  Level Montreal Center
10:33PM 63.6945 -75.8886 86° East  Level FlightAware Approximate
10:33PM 63.9833 -75.2667 102° East 520 598 35,700  Level Edmonton Center
10:34PM 63.7032 -75.5749 86° East  Level FlightAware Approximate
10:34PM 64.0333 -75.1167 53° Northeast 520 598 36,500  Level Montreal Center
10:35PM 63.7119 -75.2612 86° East  Level FlightAware Approximate
10:35PM 64.0333 -74.8167 90° East 520 598 37,000  Level Montreal Center
10:36PM 63.7200 -74.9473 87° East  Level FlightAware Approximate
10:36PM 64.0167 -74.4667 96° East 520 598 37,000  Level Montreal Center
10:37PM 63.7273 -74.6332 87° East  Level FlightAware Approximate
10:37PM 63.9667 -73.9500 102° East 520 598 37,000  Level Edmonton Center
10:38PM 63.9500 -73.6333 97° East 520 598 37,000  Level Edmonton Center
10:39PM 63.9500 -73.3000 90° East 520 598 37,000  Level Edmonton Center
10:40PM 63.9333 -72.9667 96° East 520 598 37,000  Level Edmonton Center
10:41PM 63.9333 -72.6667 90° East 520 598 37,000  Level Edmonton Center
10:42PM 63.9167 -72.3500 97° East 520 598 37,000  Level Edmonton Center
10:43PM 63.9000 -72.0167 96° East 520 598 37,000  Level Edmonton Center
10:44PM 63.9000 -71.6667 90° East 520 598 37,000  Level Edmonton Center
10:45PM 63.9333 -71.5000 65° Northeast 520 598 37,000  Level Montreal Center
10:46PM 63.9000 -71.2000 104° East 520 598 37,000  Level Montreal Center
10:47PM 63.9000 -70.8667 90° East 520 598 37,000  Level Montreal Center
10:48PM 63.8833 -70.5167 96° East 520 598 37,000  Level Montreal Center
10:49PM 63.8667 -70.2167 97° East 520 598 37,000  Level Montreal Center
10:50PM 63.7833 -69.7167 110° East 530 610 37,000  Level Edmonton Center
10:51PM 63.8333 -69.5500 56° Northeast 530 610 37,000  Level Montreal Center
10:52PM 63.8167 -69.2500 97° East 530 610 37,000  Level Montreal Center
10:53PM 63.8000 -68.8667 95° East 530 610 37,000  Level Montreal Center
10:54PM 63.7833 -68.5333 96° East 540 621 37,000  Level Montreal Center
10:55PM 63.8000 -68.1500 84° East 540 621 37,000  Level Montreal Center
10:56PM 63.8167 -67.8000 84° East 540 621 37,000  Level Montreal Center
10:57PM 63.8333 -67.4500 84° East 540 621 37,000  Level Montreal Center
10:58PM 63.8333 -67.1500 90° East 540 621 37,000  Level Montreal Center
10:59PM 63.8667 -66.7833 78° East 540 621 37,000  Level Montreal Center
11:00PM 63.8833 -66.6167 77° East 540 621 37,000  Level Gander Center
11:01PM 63.9000 -66.2833 83° East 540 621 37,000  Level Gander Center
11:02PM 63.9000 -65.9500 90° East 540 621 37,000  Level Gander Center
11:03PM 63.9333 -65.5667 79° East 540 621 37,000  Level Gander Center
11:04PM 63.9500 -65.2333 83° East 540 621 37,000  Level Gander Center
11:05PM 63.9667 -64.9000 83° East 540 621 37,000  Level Gander Center
11:06PM 63.9833 -64.5667 83° East 540 621 37,000  Level Gander Center
11:07PM 63.9833 -64.2167 90° East 550 633 37,000  Level Gander Center
11:08PM 64.0000 -63.8833 83° East 540 621 37,000  Level Gander Center
11:09PM 64.0167 -63.5500 83° East 550 633 37,000  Level Gander Center
11:10PM 64.0167 -63.2000 90° East 540 621 37,000  Level Gander Center
11:11PM 64.0333 -62.8667 83° East 550 633 37,000  Level Gander Center
11:12PM 64.0167 -62.5333 96° East 540 621 37,000  Level Gander Center
11:13PM 64.0333 -62.1833 84° East 540 621 37,000  Level Gander Center
11:14PM 64.0167 -61.8500 96° East 550 633 37,000  Level Gander Center
11:15PM 64.0167 -61.5167 90° East 550 633 37,000  Level Gander Center
11:16PM 64.0167 -61.1667 90° East 550 633 37,000  Level Gander Center
11:17PM 64.0167 -60.8333 90° East 550 633 37,000  Level Gander Center
11:18PM 64.0167 -60.4833 90° East 550 633 37,000  Level Gander Center
11:19PM 64.0000 -60.1500 96° East 550 633 37,000  Level Gander Center
11:20PM 64.0000 -59.7667 90° East 550 633 37,000  Level Gander Center
11:21PM 64.0167 -59.4333 83° East 550 633 37,000  Level Gander Center
11:22PM 64.0333 -59.1000 83° East 550 633 37,000  Level Gander Center
11:23PM 64.0333 -58.7500 90° East 550 633 37,000  Level Gander Center
11:24PM 64.0500 -58.4167 83° East 550 633 37,000  Level Gander Center
11:25PM 64.0667 -58.0667 84° East 550 633 37,000  Level Gander Center
11:26PM 64.0667 -57.6833 90° East 550 633 37,000  Level Gander Center
11:27PM 64.0667 -57.3500 90° East 550 633 37,000  Level Gander Center
11:28PM 64.0833 -57.0000 84° East 550 633 37,000  Level Gander Center
11:29PM 64.0667 -56.6667 96° East 550 633 37,000  Level Gander Center
11:30PM 64.0833 -56.3333 83° East 550 633 37,000  Level Gander Center
11:31PM 64.0833 -56.0667 90° East 550 633 37,000  Level Gander Center
11:32PM 64.1000 -55.6833 84° East 560 644 37,000  Level Gander Center
11:38PM 64.0620 -53.5150 84° East 547 629 37,000  Level FlightAware
11:39PM 64.0600 -53.3170 91° East 547 629 37,000  Level FlightAware
11:39PM 64.0560 -53.0280 92° East 547 629 37,000  Level FlightAware
11:40PM 64.0530 -52.7990 92° East 547 629 37,000  Level FlightAware
11:41PM 64.0490 -52.5360 92° East 547 629 37,000  Level FlightAware
11:42PM 64.0450 -52.3030 92° East 546 628 37,000  Level FlightAware
11:42PM 64.0400 -52.0750 93° East 546 628 37,000  Level FlightAware
11:43PM 64.0350 -51.8250 93° East 546 628 37,000  Level FlightAware
11:44PM 64.0300 -51.5920 93° East 546 628 37,000  Level FlightAware
11:44PM 64.0230 -51.3280 93° East 546 628 37,000  Level FlightAware
11:45PM 64.0180 -51.1110 93° East 546 628 37,000  Level FlightAware
11:46PM 64.0100 -50.8480 94° East 547 629 37,000  Level FlightAware
11:46PM 64.0040 -50.6180 93° East 547 629 37,000  Level FlightAware
11:47PM 63.9960 -50.3860 94° East 547 629 37,000  Level FlightAware
11:48PM 63.9900 -50.2040 94° East 547 629 37,000  Level FlightAware
11:48PM 63.9830 -49.9640 94° East 547 629 37,000  Level FlightAware
11:49PM 63.9770 -49.7690 94° East 547 629 37,000  Level FlightAware
11:50PM 63.9690 -49.5240 94° East 547 629 37,000  Level FlightAware
11:51PM 63.9630 -49.3290 94° East 547 629 37,000  Level FlightAware
11:51PM 63.9570 -49.1330 94° East 547 629 37,000  Level FlightAware
11:52PM 63.9510 -48.9380 94° East 547 629 37,000  Level FlightAware
11:53PM 63.9450 -48.7420 94° East 547 629 37,000  Level FlightAware
11:53PM 63.9380 -48.4980 94° East 547 629 37,000  Level FlightAware
11:54PM 63.9320 -48.3030 94° East 547 629 37,000  Level FlightAware
11:55PM 63.9260 -48.1070 94° East 547 629 37,000  Level FlightAware
11:55PM 63.9200 -47.9120 94° East 547 629 37,000  Level FlightAware
11:56PM 63.9140 -47.7170 94° East 547 629 37,000  Level FlightAware
11:57PM 63.9060 -47.4730 94° East 547 629 37,000  Level FlightAware
11:58PM 63.9000 -47.2780 94° East 547 629 37,000  Level FlightAware
12:00AM 63.9052 -46.6851 89° East  Level Estimated
12:01AM 63.9070 -46.3702 89° East  Level Estimated
12:02AM 63.9080 -46.0552 89° East  Level Estimated
12:03AM 63.9084 -45.7402 90° East  Level Estimated
12:04AM 63.9082 -45.4253 90° East  Level Estimated
12:05AM 63.9072 -45.1103 90° East  Level Estimated
12:06AM 63.9055 -44.7954 91° East  Level Estimated
12:07AM 63.9032 -44.4805 91° East  Level Estimated
12:08AM 63.9002 -44.1657 91° East  Level Estimated
12:09AM 63.8965 -43.8510 91° East  Level Estimated
12:10AM 63.8921 -43.5364 92° East  Level Estimated
12:11AM 63.8870 -43.2218 92° East  Level Estimated
12:12AM 63.8813 -42.9074 92° East  Level Estimated
12:13AM 63.8749 -42.5931 93° East  Level Estimated
12:14AM 63.8677 -42.2790 93° East  Level Estimated
12:15AM 63.8600 -41.9650 93° East  Level Estimated
12:16AM 63.8515 -41.6512 93° East  Level Estimated
12:17AM 63.8423 -41.3376 94° East  Level Estimated
12:18AM 63.8325 -41.0243 94° East  Level Estimated
12:19AM 63.8220 -40.7111 94° East  Level Estimated
12:20AM 63.8108 -40.3982 94° East  Level Estimated
12:21AM 63.7990 -40.0855 95° East  Level Estimated
12:22AM 63.7864 -39.7732 95° East  Level Estimated
12:23AM 63.7732 -39.4611 95° East  Level Estimated
12:24AM 63.7593 -39.1493 96° East  Level Estimated
12:25AM 63.7448 -38.8378 96° East  Level Estimated
12:26AM 63.7295 -38.5266 96° East  Level Estimated
12:27AM 63.7136 -38.2158 96° East  Level Estimated
12:28AM 63.6971 -37.9054 97° East  Level Estimated
12:29AM 63.6798 -37.5953 97° East  Level Estimated
12:30AM 63.6619 -37.2856 97° East  Level Estimated
12:31AM 63.6434 -36.9763 98° East  Level Estimated
12:32AM 63.6241 -36.6674 98° East  Level Estimated
12:33AM 63.6043 -36.3589 98° East  Level Estimated
12:34AM 63.5837 -36.0509 98° East  Level Estimated
12:35AM 63.5625 -35.7433 99° East  Level Estimated
12:36AM 63.5406 -35.4362 99° East  Level Estimated
12:37AM 63.5181 -35.1295 99° East  Level Estimated
12:38AM 63.4949 -34.8234 99° East  Level Estimated
12:39AM 63.4711 -34.5177 100° East  Level Estimated
12:40AM 63.4466 -34.2126 100° East  Level Estimated
12:41AM 63.4215 -33.9080 100° East  Level Estimated
12:42AM 63.3957 -33.6040 101° East  Level Estimated
12:43AM 63.3693 -33.3004 101° East  Level Estimated
12:44AM 63.3422 -32.9975 101° East  Level Estimated
12:45AM 63.3145 -32.6951 101° East  Level Estimated
12:46AM 63.2862 -32.3934 102° East  Level Estimated
12:47AM 63.2572 -32.0922 102° East  Level Estimated
12:48AM 63.2276 -31.7916 102° East  Level Estimated
12:49AM 63.1973 -31.4917 102° East  Level Estimated
12:50AM 63.1665 -31.1924 103° East  Level Estimated
12:51AM 63.1350 -30.8937 103° East  Level Estimated
12:52AM 63.1028 -30.5957 103° East  Level Estimated
12:52AM 63.8740 -28.4010 104° East 516 594 37,000  Level FlightAware
12:53AM 63.0701 -30.2983 104° East  Level Estimated
12:53AM 63.8560 -28.1630 100° East 515 593 37,000  Level FlightAware
12:54AM 63.8400 -27.9540 100° East 514 592 37,000  Level FlightAware
12:55AM 63.8240 -27.7430 100° East 514 592 37,000  Level FlightAware
12:55AM 63.8040 -27.4970 100° East 514 592 37,000  Level FlightAware
12:56AM 63.7880 -27.2990 100° East 513 590 37,000  Level FlightAware
12:57AM 63.7680 -27.0580 101° East 512 589 37,000  Level FlightAware
12:57AM 63.7500 -26.8470 101° East 512 589 37,000  Level FlightAware
12:58AM 63.7320 -26.6410 101° East 512 589 37,000  Level FlightAware
12:59AM 63.7110 -26.3990 101° East 513 590 37,000  Level FlightAware
12:59AM 63.6920 -26.1880 101° East 513 590 37,000  Level FlightAware
01:00AM 63.6730 -25.9790 101° East 513 590 37,000  Level FlightAware
01:01AM 63.6520 -25.7510 102° East 513 590 37,000  Level FlightAware
01:02AM 63.6290 -25.5090 102° East 512 589 37,000  Level FlightAware
01:02AM 63.6090 -25.3040 102° East 512 589 37,000  Level FlightAware
01:03AM 63.5880 -25.0940 103° East 513 590 37,000  Level FlightAware
01:04AM 63.5660 -24.8710 102° East 512 589 37,000  Level FlightAware
01:04AM 63.5450 -24.6600 103° East 511 588 37,000  Level FlightAware
01:05AM 63.5240 -24.4540 103° East 512 589 37,000  Level FlightAware
01:06AM 63.4990 -24.2200 103° East 512 589 37,000  Level FlightAware
01:06AM 63.4780 -24.0200 103° East 512 589 37,000  Level FlightAware
01:07AM 63.4550 -23.8080 104° East 513 590 37,000  Level FlightAware
01:08AM 63.4300 -23.5790 104° East 514 592 37,000  Level FlightAware
01:09AM 63.4070 -23.3750 104° East 514 592 37,000  Level FlightAware
01:09AM 63.3800 -23.1390 104° East 514 592 37,000  Level FlightAware
01:10AM 63.3580 -22.9450 104° East 515 593 37,000  Level FlightAware
01:11AM 63.3310 -22.7140 104° East 514 592 37,000  Level FlightAware
01:11AM 63.3070 -22.5080 104° East 515 593 37,000  Level FlightAware
01:12AM 63.2820 -22.3040 105° East 514 592 37,000  Level FlightAware
01:13AM 63.2540 -22.0670 105° East 514 592 37,000  Level FlightAware
01:13AM 63.2300 -21.8720 105° East 514 592 37,000  Level FlightAware
01:14AM 63.2010 -21.6410 105° East 513 590 37,000  Level FlightAware
01:15AM 63.1750 -21.4400 106° East 513 590 37,000  Level FlightAware
01:16AM 63.1490 -21.2350 106° East 511 588 37,000  Level FlightAware
01:16AM 63.1200 -21.0150 106° East 512 589 37,000  Level FlightAware
01:17AM 63.0940 -20.8150 106° East 511 588 37,000  Level FlightAware
01:18AM 63.0680 -20.6180 106° East 511 588 37,000  Level FlightAware
01:18AM 63.0360 -20.3880 107° East 511 588 37,000  Level FlightAware
01:19AM 63.0090 -20.1890 107° East 511 588 37,000  Level FlightAware
01:20AM 62.9790 -19.9720 107° East 511 588 37,000  Level FlightAware
01:20AM 62.9480 -19.7710 109° East 512 589 37,000  Level FlightAware
01:21AM 62.9180 -19.5810 109° East 512 589 37,000  Level FlightAware
01:22AM 62.8820 -19.3530 109° East 513 590 37,000  Level FlightAware
01:23AM 62.8500 -19.1570 110° East 513 590 37,000  Level FlightAware
01:23AM 62.8200 -18.9690 109° East 515 593 37,000  Level FlightAware
01:24AM 62.7840 -18.7470 109° East 515 593 37,000  Level FlightAware
01:25AM 62.7520 -18.5520 110° East 515 593 37,000  Level FlightAware
01:25AM 62.7150 -18.3300 110° East 516 594 37,000  Level FlightAware
01:26AM 62.6830 -18.1410 110° East 516 594 37,000  Level FlightAware
01:27AM 62.6450 -17.9170 110° East 516 594 37,000  Level FlightAware
01:27AM 62.6120 -17.7250 110° East 515 593 37,000  Level FlightAware
01:28AM 62.5780 -17.5300 111° Southeast 516 594 37,000  Level FlightAware
01:29AM 62.5390 -17.3100 111° Southeast 516 594 37,000  Level FlightAware
01:30AM 62.5060 -17.1200 111° Southeast 515 593 37,000  Level FlightAware
01:30AM 62.4670 -16.9070 112° Southeast 515 593 37,000  Level FlightAware
01:31AM 62.4330 -16.7180 111° Southeast 514 592 37,000  Level FlightAware
01:32AM 62.3970 -16.5240 112° Southeast 514 592 37,000  Level FlightAware
01:32AM 62.3590 -16.3140 111° Southeast 515 593 37,000  Level FlightAware
01:33AM 62.3230 -16.1240 112° Southeast 515 593 37,000  Level FlightAware
01:34AM 62.2840 -15.9150 112° Southeast 516 594 37,000  Level FlightAware
01:34AM 62.2460 -15.7200 113° Southeast 517 595 37,000  Level FlightAware
01:35AM 62.2100 -15.5310 112° Southeast 517 595 37,000  Level FlightAware
01:36AM 62.1690 -15.3210 113° Southeast 518 596 37,000  Level FlightAware
01:37AM 62.1360 -15.1480 112° Southeast 518 596 37,000  Level FlightAware
01:37AM 62.0890 -14.9180 113° Southeast 519 597 37,000  Level FlightAware
01:38AM 62.0510 -14.7290 113° Southeast 520 598 37,000  Level FlightAware
01:39AM 62.0090 -14.5210 113° Southeast 519 597 37,000  Level FlightAware
01:39AM 61.9720 -14.3400 113° Southeast 519 597 37,000  Level FlightAware
01:40AM 61.9330 -14.1510 114° Southeast 520 598 37,000  Level FlightAware
01:41AM 61.8900 -13.9440 114° Southeast 521 600 37,000  Level FlightAware
01:41AM 61.8500 -13.7530 114° Southeast 521 600 37,000  Level FlightAware
01:42AM 61.8060 -13.5460 114° Southeast 522 601 37,000  Level FlightAware
01:43AM 61.7720 -13.3880 114° Southeast 521 600 37,000  Level FlightAware
01:44AM 61.7270 -13.1800 114° Southeast 522 601 37,000  Level FlightAware
01:44AM 61.6810 -12.9720 115° Southeast 522 601 37,000  Level FlightAware
01:45AM 61.6430 -12.7970 115° Southeast 519 597 37,000  Level FlightAware
01:46AM 61.5990 -12.6000 115° Southeast 516 594 37,000  Level FlightAware
01:46AM 61.5550 -12.4050 115° Southeast 513 590 37,000  Level FlightAware
01:47AM 61.5080 -12.1960 115° Southeast 512 589 37,000  Level FlightAware
01:48AM 61.4590 -11.9830 116° Southeast 510 587 37,000  Level FlightAware
01:49AM 61.4190 -11.8040 115° Southeast 510 587 37,000  Level FlightAware
01:49AM 61.3850 -11.6520 115° Southeast 510 587 37,000  Level FlightAware
01:50AM 61.3510 -11.5000 115° Southeast 510 587 37,000  Level FlightAware
01:51AM 61.3170 -11.3490 115° Southeast 510 587 37,000  Level FlightAware
01:51AM 61.2830 -11.1970 115° Southeast 510 587 37,000  Level FlightAware
01:52AM 61.2410 -11.0080 115° Southeast 510 587 37,000  Level FlightAware
01:53AM 61.2070 -10.8570 115° Southeast 510 587 37,000  Level FlightAware
01:54AM 61.1730 -10.7060 115° Southeast 510 587 37,000  Level FlightAware
01:54AM 61.1390 -10.5560 115° Southeast 510 587 37,000  Level FlightAware
01:55AM 61.1050 -10.4050 115° Southeast 510 587 37,000  Level FlightAware
01:56AM 61.0630 -10.2170 115° Southeast 510 587 37,000  Level FlightAware
01:56AM 61.0290 -10.0670 115° Southeast 510 587 37,000  Level FlightAware
01:57AM 60.9950 -9.9170 115° Southeast 510 587 37,000  Level FlightAware
01:58AM 60.8610 -9.4660 121° Southeast 500 575 37,000  Level FlightAware
01:58AM 60.8190 -9.2860 116° Southeast 497 572 37,000  Level FlightAware
01:59AM 60.7740 -9.0930 115° Southeast 497 572 37,000  Level FlightAware
02:00AM 60.7340 -8.9230 116° Southeast 496 571 37,000  Level FlightAware
02:01AM 60.6880 -8.7330 116° Southeast 497 572 37,000  Level FlightAware
02:01AM 60.6490 -8.5600 115° Southeast 498 573 37,000  Level FlightAware
02:02AM 60.6110 -8.3900 114° Southeast 503 579 37,000  Level FlightAware
02:03AM 60.5670 -8.1940 114° Southeast 504 580 37,000  Level FlightAware
02:03AM 60.5290 -8.0230 114° Southeast 505 581 37,000  Level FlightAware
02:04AM 60.4840 -7.8280 115° Southeast 503 579 37,000  Level FlightAware
02:05AM 60.4430 -7.6620 117° Southeast 506 582 37,000 180 Level FlightAware
02:05AM 60.3880 -7.4930 123° Southeast 500 575 37,300 480 Climbing FlightAware
02:06AM 60.3260 -7.3250 127° Southeast 501 577 37,700 480 Climbing FlightAware
02:07AM 60.2710 -7.1750 126° Southeast 508 585 38,000 480 Climbing FlightAware
02:07AM 60.2260 -7.0550 127° Southeast 506 582 38,300 480 Climbing FlightAware
02:08AM 60.1530 -6.8610 127° Southeast 501 577 38,700 -600 Climbing FlightAware
02:09AM 60.0945 -6.7057 127° Southeast 500 575 37,500 420 Descending FlightAware UK
02:09AM 60.0990 -6.7170 127° Southeast 503 579 39,000 -360 Climbing FlightAware
02:09AM 60.0694 -6.6390 127° Southeast 504 580 37,400 -2,760 Descending FlightAware UK
02:10AM 60.0440 -6.5722 127° Southeast 502 578 37,500 3,180 Climbing FlightAware UK
02:10AM 60.0330 -6.5440 127° Southeast 505 581 39,000  Climbing FlightAware
02:10AM 60.0016 -6.4612 127° Southeast 500 575 37,500 -2,520 Descending FlightAware UK
02:10AM 59.9760 -6.3942 127° Southeast 500 575 37,500 3,300 Level FlightAware UK
02:10AM 59.9720 -6.3830 127° Southeast 505 581 39,000  Climbing FlightAware
02:11AM 59.9420 -6.3059 127° Southeast 504 580 37,500 -2,760 Descending FlightAware UK
02:11AM 59.9165 -6.2399 128° Southeast 504 580 37,500 3,600 Level FlightAware UK
02:11AM 59.9150 -6.2350 128° Southeast 506 582 39,000  Climbing FlightAware
02:11AM 59.8822 -6.1519 128° Southeast 504 580 37,500 -2,580 Descending FlightAware UK
02:12AM 59.8566 -6.0856 128° Southeast 506 582 37,500 4,980 Level FlightAware UK
02:12AM 59.8670 -6.1100 128° Southeast 506 582 39,000  Climbing FlightAware
02:12AM 59.8310 -6.0195 128° Southeast 506 582 37,500 -2,520 Descending FlightAware UK
02:12AM 59.8052 -5.9537 128° Southeast 506 582 37,500 2,760 Level FlightAware UK
02:13AM 59.7930 -5.9230 128° Southeast 506 582 39,000  Climbing FlightAware
02:13AM 59.7621 -5.8441 128° Southeast 506 582 37,500 -2,700 Descending FlightAware UK
02:13AM 59.7363 -5.7786 128° Southeast 504 580 37,500 4,680 Level FlightAware UK
02:13AM 59.7410 -5.7910 128° Southeast 505 581 39,000  Climbing FlightAware
02:13AM 59.7105 -5.7132 128° Southeast 504 580 37,500 -2,220 Descending FlightAware UK
02:14AM 59.6760 -5.6262 128° Southeast 508 585 37,500 2,700 Level FlightAware UK
02:14AM 59.6690 -5.6090 128° Southeast 506 582 39,000  Climbing FlightAware
02:14AM 59.6414 -5.5392 128° Southeast 506 582 37,500 -2,760 Descending FlightAware UK
02:15AM 59.6155 -5.4740 128° Southeast 506 582 37,500 3,600 Level FlightAware UK
02:15AM 59.6130 -5.4670 128° Southeast 505 581 39,000  Climbing FlightAware
02:15AM 59.5807 -5.3874 128° Southeast 506 582 37,500 -2,580 Descending FlightAware UK
02:15AM 59.5543 -5.3218 128° Southeast 504 580 37,500 3,180 Level FlightAware UK
02:15AM 59.5490 -5.3080 128° Southeast 506 582 39,000  Climbing FlightAware
02:16AM 59.5109 -5.2139 128° Southeast 506 582 37,500  Descending FlightAware UK
02:16AM 59.5030 -5.1950 128° Southeast 506 582 39,000  Climbing FlightAware
02:16AM 59.4674 -5.1063 128° Southeast 508 585 37,500 -2,400 Descending FlightAware UK
02:17AM 59.4416 -5.0425 129° Southeast 508 585 37,500 3,600 Level FlightAware UK
02:17AM 59.4390 -5.0370 129° Southeast 507 583 39,000  Climbing FlightAware
02:17AM 59.4062 -4.9559 129° Southeast 508 585 37,500 -2,580 Descending FlightAware UK
02:17AM 59.3798 -4.8916 129° Southeast 508 585 37,500 3,900 Level FlightAware UK
02:17AM 59.3800 -4.8930 129° Southeast 507 583 39,000  Climbing FlightAware
02:18AM 59.3446 -4.8060 129° Southeast 508 585 37,500 -2,460 Descending FlightAware UK
02:18AM 59.3181 -4.7417 129° Southeast 506 582 37,500 4,260 Level FlightAware UK
02:18AM 59.3190 -4.7450 129° Southeast 507 583 39,000  Climbing FlightAware
02:18AM 59.2917 -4.6776 129° Southeast 506 582 37,500 -2,760 Descending FlightAware UK
02:19AM 59.2651 -4.6135 129° Southeast 506 582 37,500 3,600 Level FlightAware UK
02:19AM 59.2630 -4.6090 129° Southeast 508 585 39,000  Climbing FlightAware
02:19AM 59.2208 -4.5067 129° Southeast 508 585 37,500  Descending FlightAware UK
02:19AM 59.1950 -4.4440 129° Southeast 510 587 39,000  Climbing FlightAware
02:20AM 59.1494 -4.3363 129° Southeast 510 587 37,500  Descending FlightAware UK
02:20AM 59.1310 -4.2920 129° Southeast 509 586 39,000  Climbing FlightAware
02:20AM 59.0956 -4.2080 129° Southeast 504 580 37,500  Descending FlightAware UK
02:21AM 59.0770 -4.1630 129° Southeast 510 587 39,000  Climbing FlightAware
02:21AM 59.0688 -4.1443 129° Southeast 512 589 37,500 -4,740 Descending FlightAware UK
02:21AM 59.0419 -4.0809 129° Southeast 510 587 37,500  Level FlightAware UK
02:21AM 59.0061 -3.9963 129° Southeast 504 580 37,500 2,880 Level FlightAware UK
02:22AM 59.0020 -3.9880 129° Southeast 510 587 39,000  Climbing FlightAware
02:22AM 58.9430 -3.8490 129° Southeast 508 585 37,500  Descending FlightAware UK
02:22AM 58.9430 -3.8490 129° Southeast 511 588 39,000  Climbing FlightAware
02:23AM 58.9068 -3.7649 129° Southeast 510 587 37,500 -2,460 Descending FlightAware UK
02:23AM 58.8796 -3.7019 130° Southeast 512 589 37,500 4,260 Level FlightAware UK
02:23AM 58.8820 -3.7060 130° Southeast 510 587 39,000  Climbing FlightAware
02:23AM 58.8434 -3.6181 130° Southeast 510 587 37,500 -2,340 Descending FlightAware UK
02:24AM 58.8160 -3.5547 130° Southeast 506 582 37,500 3,720 Level FlightAware UK
02:24AM 58.8120 -3.5450 130° Southeast 511 588 39,000  Climbing FlightAware
02:24AM 58.7799 -3.4710 130° Southeast 502 578 37,500 -2,520 Descending FlightAware UK
02:24AM 58.7525 -3.4085 130° Southeast 506 582 37,500 4,080 Level FlightAware UK
02:24AM 58.7510 -3.4050 130° Southeast 512 589 39,000  Climbing FlightAware
02:25AM 58.7068 -3.3045 130° Southeast 510 587 37,500  Descending FlightAware UK
02:25AM 58.6860 -3.2570 130° Southeast 513 590 39,000  Climbing FlightAware
02:25AM 58.6425 -3.1581 130° Southeast 508 585 37,500  Descending FlightAware UK
02:26AM 58.6270 -3.1220 130° Southeast 507 583 39,000  Climbing FlightAware
02:26AM 58.5875 -3.0334 130° Southeast 506 582 37,500  Descending FlightAware UK
02:26AM 58.5640 -2.9820 130° Southeast 509 586 39,000  Climbing FlightAware
02:27AM 58.5225 -2.8878 130° Southeast 512 589 37,500  Descending FlightAware UK
02:27AM 58.5020 -2.8430 130° Southeast 514 592 39,000  Climbing FlightAware
02:27AM 58.4577 -2.7432 130° Southeast 513 590 37,500 -2,220 Descending FlightAware UK
02:28AM 58.4299 -2.6814 131° Southeast 515 593 37,500 4,080 Level FlightAware UK
02:28AM 58.4330 -2.6890 131° Southeast 514 592 39,000  Climbing FlightAware
02:28AM 58.3744 -2.5581 131° Southeast 513 590 37,500  Descending FlightAware UK
02:29AM 58.3640 -2.5340 131° Southeast 506 582 39,000  Climbing FlightAware
02:29AM 58.3097 -2.4154 131° Southeast 512 589 37,500  Descending FlightAware UK
02:29AM 58.3020 -2.3990 131° Southeast 511 588 39,000  Climbing FlightAware
02:30AM 58.2633 -2.3142 131° Southeast 512 589 37,500 -2,460 Descending FlightAware UK
02:30AM 58.2355 -2.2535 131° Southeast 512 589 37,500 4,260 Level FlightAware UK
02:30AM 58.2400 -2.2640 131° Southeast 510 587 39,000  Climbing FlightAware
02:30AM 58.2074 -2.1923 131° Southeast 508 585 37,500 -2,760 Descending FlightAware UK
02:30AM 58.1797 -2.1318 131° Southeast 510 587 37,500 3,000 Level FlightAware UK
02:31AM 58.1710 -2.1140 131° Southeast 510 587 39,000  Climbing FlightAware
02:31AM 58.1240 -2.0112 131° Southeast 512 589 37,500  Descending FlightAware UK
02:31AM 58.1100 -1.9800 131° Southeast 510 587 39,000  Climbing FlightAware
02:32AM 58.0494 -1.8514 131° Southeast 504 580 37,500  Descending FlightAware UK
02:32AM 58.0390 -1.8290 131° Southeast 510 587 39,000  Climbing FlightAware
02:32AM 58.0027 -1.7519 131° Southeast 512 589 37,500 -2,520 Descending FlightAware UK
02:33AM 57.9742 -1.6915 132° Southeast 513 590 37,500 3,900 Level FlightAware UK
02:33AM 57.9770 -1.6980 132° Southeast 511 588 39,000  Climbing FlightAware
02:33AM 57.9367 -1.6119 132° Southeast 510 587 37,500 -2,400 Descending FlightAware UK
02:33AM 57.9084 -1.5515 131° Southeast 508 585 37,500 4,500 Level FlightAware UK
02:33AM 57.9140 -1.5640 131° Southeast 510 587 39,000  Climbing FlightAware
02:34AM 57.8524 -1.4336 131° Southeast 508 585 37,500  Descending FlightAware UK
02:34AM 57.8520 -1.4330 131° Southeast 509 586 39,000 1,740 Climbing FlightAware
02:35AM 57.7810 -1.2840 132° Southeast 509 586 39,000 -1,380 Level FlightAware
02:35AM 57.7392 -1.1963 132° Southeast 508 585 37,500  Descending FlightAware UK
02:36AM 57.7100 -1.1360 132° Southeast 509 586 39,000  Climbing FlightAware
02:36AM 57.6734 -1.0591 132° Southeast 504 580 37,500 -2,520 Descending FlightAware UK
02:36AM 57.6451 -1.0006 132° Southeast 504 580 37,500 4,080 Level FlightAware UK
02:36AM 57.6480 -1.0060 132° Southeast 509 586 39,000  Climbing FlightAware
02:37AM 57.6074 -0.9227 132° Southeast 502 578 37,500 -2,400 Descending FlightAware UK
02:37AM 57.5789 -0.8645 132° Southeast 504 580 37,500 4,500 Level FlightAware UK
02:37AM 57.5850 -0.8770 132° Southeast 505 581 39,000  Climbing FlightAware
02:37AM 57.5312 -0.7668 132° Southeast 504 580 37,500  Descending FlightAware UK
02:38AM 57.5140 -0.7320 132° Southeast 506 582 39,000  Climbing FlightAware
02:38AM 57.4646 -0.6306 132° Southeast 502 578 37,500  Descending FlightAware UK
02:38AM 57.4510 -0.6030 132° Southeast 507 583 39,000 1,620 Climbing FlightAware
02:39AM 57.3860 -0.4720 133° Southeast 509 586 39,000 -1,620 Level FlightAware
02:39AM 57.3490 -0.3969 133° Southeast 506 582 37,500 -2,580 Descending FlightAware UK
02:40AM 57.3200 -0.3387 133° Southeast 508 585 37,500 3,900 Level FlightAware UK
02:40AM 57.3220 -0.3430 133° Southeast 510 587 39,000  Climbing FlightAware
02:40AM 57.2808 -0.2605 133° Southeast 508 585 37,500  Descending FlightAware UK
02:40AM 57.2500 -0.1990 133° Southeast 510 587 39,000  Climbing FlightAware
02:41AM 57.2131 -0.1248 133° Southeast 506 582 37,500 -2,580 Descending FlightAware UK
02:41AM 57.1839 -0.0670 133° Southeast 512 589 37,500 3,180 Level FlightAware UK
02:41AM 57.1770 -0.0530 133° Southeast 516 594 39,000  Climbing FlightAware
02:42AM 57.1228 0.0444 133° Southeast 512 589 37,500  Descending FlightAware UK
02:42AM 57.1080 0.0670 133° Southeast 512 589 39,000  Climbing FlightAware
02:42AM 57.0244 0.1922 133° Southeast 508 585 37,500  Descending FlightAware UK
02:43AM 57.0250 0.1900 133° Southeast 508 585 39,000  Climbing FlightAware
02:43AM 56.9688 0.2699 133° Southeast 513 590 37,500  Descending FlightAware UK
02:43AM 56.9510 0.2940 133° Southeast 508 585 39,000  Climbing FlightAware
02:44AM 56.9013 0.3641 133° Southeast 510 587 37,500  Descending FlightAware UK
02:44AM 56.8760 0.3980 133° Southeast 507 583 39,000  Climbing FlightAware
02:44AM 56.8112 0.4877 133° Southeast 508 585 37,500  Descending FlightAware UK
02:45AM 56.7960 0.5090 133° Southeast 505 581 39,000 1,560 Climbing FlightAware
02:45AM 56.7190 0.6140 143° Southeast 503 579 39,000 -1,620 Level FlightAware
02:46AM 56.6767 0.6708 143° Southeast 506 582 37,500  Descending FlightAware UK
02:46AM 56.6350 0.7270 143° Southeast 500 575 39,000  Climbing FlightAware
02:47AM 56.5659 0.8203 143° Southeast 500 575 37,500  Descending FlightAware UK
02:47AM 56.5610 0.8270 143° Southeast 498 573 39,000  Climbing FlightAware
02:47AM 56.4883 0.9248 143° Southeast 498 573 37,500  Descending FlightAware UK
02:47AM 56.4880 0.9250 143° Southeast 497 572 39,000  Climbing FlightAware
02:48AM 56.4442 0.9842 143° Southeast 498 573 37,500  Descending FlightAware UK
02:48AM 56.4050 1.0360 143° Southeast 498 573 39,000 1,320 Climbing FlightAware
02:49AM 56.3300 1.1360 144° Southeast 500 575 39,000 -1,320 Level FlightAware
02:49AM 56.2658 1.2207 144° Southeast 496 571 37,500  Descending FlightAware UK
02:50AM 56.2480 1.2440 144° Southeast 502 578 39,000 1,560 Climbing FlightAware
02:50AM 56.1710 1.3450 144° Southeast 499 574 39,000 -1,620 Level FlightAware
02:50AM 56.1307 1.3986 144° Southeast 500 575 37,500  Descending FlightAware UK
02:51AM 56.0970 1.4420 144° Southeast 501 577 39,000  Climbing FlightAware
02:51AM 56.0282 1.5321 144° Southeast 504 580 37,500  Descending FlightAware UK
02:52AM 56.0110 1.5540 144° Southeast 504 580 39,000  Climbing FlightAware
02:52AM 55.9709 1.6065 144° Southeast 502 578 37,500  Descending FlightAware UK
02:52AM 55.9360 1.6510 144° Southeast 513 590 39,000  Climbing FlightAware
02:53AM 55.8786 1.7262 144° Southeast 504 580 37,500  Descending FlightAware UK
02:53AM 55.8610 1.7480 144° Southeast 515 593 39,000  Climbing FlightAware
02:53AM 55.8087 1.8155 144° Southeast 504 580 37,500 -2,460 Descending FlightAware UK
02:54AM 55.7740 1.8598 144° Southeast 504 580 37,500 3,420 Level FlightAware UK
02:54AM 55.7690 1.8660 144° Southeast 515 593 39,000  Climbing FlightAware
02:54AM 55.7275 1.9190 144° Southeast 504 580 37,500 -2,700 Descending FlightAware UK
02:54AM 55.6927 1.9632 144° Southeast 506 582 37,500 3,720 Level FlightAware UK
02:54AM 55.6990 1.9550 144° Southeast 515 593 39,000 1,920 Climbing FlightAware
02:55AM 55.6140 2.0640 144° Southeast 514 592 39,000 -1,500 Level FlightAware
02:55AM 55.5651 2.1255 144° Southeast 502 578 37,500 -2,400 Descending FlightAware UK
02:56AM 55.5304 2.1691 145° Southeast 504 580 37,500 3,600 Level FlightAware UK
02:56AM 55.5280 2.1720 145° Southeast 513 590 39,000  Climbing FlightAware
02:56AM 55.4841 2.2271 145° Southeast 504 580 37,500 -2,580 Descending FlightAware UK
02:56AM 55.4493 2.2705 145° Southeast 504 580 37,500 3,900 Level FlightAware UK
02:56AM 55.4600 2.2570 145° Southeast 512 589 39,000  Climbing FlightAware
02:57AM 55.3911 2.3432 145° Southeast 504 580 37,500  Descending FlightAware UK
02:57AM 55.3720 2.3670 145° Southeast 511 588 39,000  Climbing FlightAware
02:57AM 55.3219 2.4299 145° Southeast 504 580 37,500  Descending FlightAware UK
02:58AM 55.2820 2.4790 145° Southeast 510 587 39,000  Climbing FlightAware
02:58AM 55.2069 2.5720 145° Southeast 498 573 37,500  Descending FlightAware UK
02:59AM 55.2010 2.5790 145° Southeast 509 586 39,000  Climbing FlightAware
02:59AM 55.1358 2.6521 145° Southeast 500 575 37,500  Descending FlightAware UK
02:59AM 55.1140 2.6710 145° Southeast 500 575 39,000  Climbing FlightAware
03:00AM 55.0741 2.7036 145° Southeast 496 571 37,500  Descending FlightAware UK
03:00AM 55.0500 2.7340 145° Southeast 502 578 39,000  Climbing FlightAware
03:00AM 54.9706 2.7643 145° Southeast 498 573 37,500  Descending FlightAware UK
03:01AM 54.9390 2.7820 145° Southeast 493 567 39,000  Climbing FlightAware
03:01AM 54.8793 2.8157 145° Southeast 498 573 37,500  Descending FlightAware UK
03:01AM 54.8520 2.8310 145° Southeast 492 566 39,000  Climbing FlightAware
03:02AM 54.7757 2.8740 145° Southeast 498 573 37,500  Descending FlightAware UK
03:02AM 54.7630 2.8810 145° Southeast 491 565 39,000  Climbing FlightAware
03:02AM 54.7112 2.9105 145° Southeast 498 573 37,500 -2,760 Descending FlightAware UK
03:03AM 54.6724 2.9322 162° South 496 571 37,500 3,600 Level FlightAware UK
03:03AM 54.6740 2.9310 162° South 489 563 39,000  Climbing FlightAware
03:03AM 54.6208 2.9612 162° South 494 568 37,500  Descending FlightAware UK
03:03AM 54.5860 2.9810 162° South 490 564 39,000  Climbing FlightAware
03:04AM 54.5047 3.0261 162° South 490 564 37,500  Descending FlightAware UK
03:04AM 54.4870 3.0360 162° South 493 567 39,000  Climbing FlightAware
03:04AM 54.4401 3.0621 162° South 496 571 37,500 -2,700 Descending FlightAware UK
03:05AM 54.4012 3.0838 162° South 500 575 37,500 3,720 Level FlightAware UK
03:05AM 54.3990 3.0850 162° South 493 567 39,000  Climbing FlightAware
03:05AM 54.3361 3.1198 162° South 496 571 37,500  Descending FlightAware UK
03:06AM 54.3030 3.1380 162° South 493 567 39,000  Climbing FlightAware
03:06AM 54.2187 3.1844 162° South 496 571 37,500  Descending FlightAware UK
03:06AM 54.2130 3.1870 162° South 494 568 39,000  Climbing FlightAware
03:07AM 54.1661 3.2133 162° South 496 571 37,500 -2,580 Descending FlightAware UK
03:07AM 54.1274 3.2345 162° South 496 571 37,500 4,080 Level FlightAware UK
03:07AM 54.1290 3.2330 162° South 496 571 39,000 1,800 Climbing FlightAware
03:08AM 54.0350 3.2850 162° South 498 573 39,000 -1,500 Level FlightAware
03:08AM 53.9827 3.3134 162° South 502 578 37,500  Descending FlightAware UK
03:08AM 53.9400 3.3360 162° South 498 573 39,000  Climbing FlightAware
03:09AM 53.8641 3.3773 162° South 508 585 37,500  Descending FlightAware UK
03:09AM 53.8440 3.3880 162° South 496 571 39,000  Climbing FlightAware
03:09AM 53.7854 3.4194 162° South 504 580 37,500  Descending FlightAware UK
03:10AM 53.7570 3.4340 162° South 490 564 39,000  Climbing FlightAware
03:10AM 53.7076 3.4615 162° South 498 573 37,500 -2,520 Descending FlightAware UK
03:10AM 53.6694 3.4819 162° South 496 571 37,500 3,300 Level FlightAware UK
03:11AM 53.6570 3.4880 162° South 488 562 39,000 2,280 Climbing FlightAware
03:11AM 53.5950 3.5150 166° South 484 557 39,000 -1,620 Level FlightAware
03:11AM 53.5256 3.5347 166° South 500 575 37,500  Descending FlightAware UK
03:12AM 53.4810 3.5440 166° South 479 551 39,000  Climbing FlightAware
03:12AM 53.4336 3.5555 166° South 496 571 37,500  Descending FlightAware UK
03:13AM 53.3920 3.5640 166° South 478 550 39,000  Climbing FlightAware
03:13AM 53.3544 3.5735 166° South 496 571 37,500 -2,760 Descending FlightAware UK
03:13AM 53.3160 3.5860 169° South 496 571 37,500 3,000 Level FlightAware UK
03:13AM 53.2940 3.5920 169° South 477 549 39,000  Climbing FlightAware
03:14AM 53.2379 3.6100 169° South 492 566 37,500  Descending FlightAware UK
03:14AM 53.2070 3.6190 169° South 477 549 39,000  Climbing FlightAware
03:14AM 53.1597 3.6334 169° South 492 566 37,500 -2,400 Descending FlightAware UK
03:15AM 53.1207 3.6448 170° South 492 566 37,500 3,600 Level FlightAware UK
03:15AM 53.1140 3.6460 170° South 477 549 39,000  Climbing FlightAware
03:15AM 53.0422 3.6675 170° South 492 566 37,500  Descending FlightAware UK
03:15AM 53.0410 3.6680 170° South 477 549 39,000  Climbing FlightAware
03:16AM 52.9473 3.7459 170° South 490 564 37,500  Descending FlightAware UK
03:16AM 52.9360 3.7640 170° South 503 579 39,000 1,860 Climbing FlightAware
03:17AM 52.8840 3.8930 124° Southeast 513 590 39,000  Level FlightAware
03:17AM 52.8380 4.0170 122° Southeast 511 588 39,000  Level FlightAware
03:18AM 52.7800 4.1760 121° Southeast 509 586 39,000  Level FlightAware
03:19AM 52.7320 4.3020 122° Southeast 507 583 39,000  Level FlightAware
03:20AM 52.6770 4.4460 122° Southeast 506 582 39,000  Level FlightAware
03:20AM 52.6280 4.5750 122° Southeast 506 582 39,000 -1,560 Level FlightAware
03:21AM 52.6003 4.6491 122° Southeast 488 562 37,500  Descending FlightAware UK
03:21AM 52.5770 4.7080 122° Southeast 506 582 39,000  Climbing FlightAware
03:21AM 52.5480 4.7852 122° Southeast 488 562 37,500  Descending FlightAware UK
03:22AM 52.5210 4.8540 122° Southeast 507 583 39,000 1,380 Climbing FlightAware
03:22AM 52.4700 4.9850 123° Southeast 508 585 39,000 -1,200 Level FlightAware
03:23AM 52.4213 5.1165 123° Southeast 486 559 37,500  Descending FlightAware UK
03:23AM 52.4140 5.1300 123° Southeast 509 586 39,000  Climbing FlightAware
03:24AM 52.3755 5.2333 123° Southeast 488 562 37,500  Descending FlightAware UK
03:24AM 52.3670 5.2500 123° Southeast 510 587 39,000 1,560 Climbing FlightAware
03:25AM 52.3040 5.4090 123° Southeast 512 589 39,000 -1,200 Level FlightAware
03:25AM 52.2596 5.5252 123° Southeast 494 568 37,500  Descending FlightAware UK
03:25AM 52.2550 5.5330 123° Southeast 513 590 39,000  Climbing FlightAware
03:25AM 52.2278 5.6021 123° Southeast 496 571 37,500  Descending FlightAware UK
03:26AM 52.1970 5.6580 123° Southeast 510 587 39,000  Climbing FlightAware
03:26AM 52.1615 5.7231 123° Southeast 498 573 37,500 -2,460 Descending FlightAware UK
03:26AM 52.1307 5.7709 136° Southeast 500 575 37,500 3,420 Level FlightAware UK
03:27AM 52.1230 5.7830 136° Southeast 508 585 39,000  Climbing FlightAware
03:27AM 52.0929 5.8371 136° Southeast 498 573 37,500  Descending FlightAware UK
03:27AM 52.0600 5.8880 136° Southeast 507 583 39,000 1,380 Climbing FlightAware
03:28AM 51.9920 5.9990 135° Southeast 507 583 39,000  Level FlightAware
03:29AM 51.9160 6.1220 135° Southeast 507 583 39,000  Level FlightAware
03:29AM 51.8520 6.2260 135° Southeast 506 582 39,000  Level FlightAware
03:30AM 51.7860 6.3320 135° Southeast 506 582 39,000 -660 Level FlightAware
03:31AM 51.7150 6.4450 135° Southeast 506 582 38,100 -2,160 Descending FlightAware
03:31AM 51.6520 6.5460 135° Southeast 515 593 36,000 -3,300 Descending FlightAware
03:32AM 51.5750 6.6690 135° Southeast 517 595 33,700 -3,060 Descending FlightAware
03:33AM 51.4960 6.7930 136° Southeast 507 583 31,700 -2,580 Descending FlightAware
03:34AM 51.4260 6.9050 135° Southeast 499 574 29,900 -2,400 Descending FlightAware
03:34AM 51.3610 7.0060 136° Southeast 489 563 28,300 -2,400 Descending FlightAware
03:35AM 51.3050 7.0920 136° Southeast 477 549 26,900 -1,680 Descending FlightAware
03:36AM 51.2190 7.1900 144° Southeast 451 519 26,000 -600 Descending FlightAware
03:36AM 51.1420 7.2520 153° Southeast 456 525 26,000  Level FlightAware
03:37AM 51.0600 7.3260 150° Southeast 456 525 26,000 -600 Level FlightAware
03:38AM 50.9880 7.3960 149° Southeast 454 522 25,200 -1,800 Descending FlightAware
03:38AM 50.9190 7.4640 148° Southeast 440 506 23,600 -2,580 Descending FlightAware
03:39AM 50.8410 7.5390 149° Southeast 436 502 21,600 -2,640 Descending FlightAware
03:40AM 50.7670 7.6050 151° Southeast 429 494 19,900 -2,400 Descending FlightAware
03:41AM 50.6870 7.6600 156° South 415 478 18,200 -2,340 Descending FlightAware
03:41AM 50.6180 7.7050 158° South 399 459 16,600 -2,220 Descending FlightAware
03:42AM 50.5390 7.7560 158° South 388 447 15,100 -1,320 Descending FlightAware
03:43AM 50.4940 7.7860 157° South 372 428 15,000 -1,200 Descending FlightAware
03:43AM 50.4150 7.8500 153° Southeast 373 429 13,500 -1,620 Descending FlightAware
03:44AM 50.3580 7.9200 142° Southeast 369 425 12,500 -1,080 Descending FlightAware
03:45AM 50.3000 7.9930 141° Southeast 367 422 12,000 -420 Descending FlightAware
03:45AM 50.2510 8.0530 142° Southeast 367 422 12,000  Level FlightAware
03:46AM 50.1850 8.1340 142° Southeast 368 423 12,000 -480 Level FlightAware
03:47AM 50.1310 8.2000 142° Southeast 361 415 11,400 -1,140 Descending FlightAware
03:48AM 50.0810 8.2630 141° Southeast 357 411 10,500 -1,440 Descending FlightAware
03:48AM 50.0670 8.2930 126° Southeast 360 414 10,100 -1,620 Descending FlightAware
03:48AM 50.0600 8.3360 104° East 357 411 9,700 -1,500 Descending FlightAware
03:48AM 50.0600 8.3450 90° East 357 411 9,600 -1,440 Descending FlightAware
03:49AM 50.0700 8.4070 76° East 347 399 9,000 -1,560 Descending FlightAware
03:49AM 50.0860 8.4610 65° Northeast 341 392 8,300 -1,140 Descending FlightAware
03:49AM 50.1080 8.5250 62° Northeast 338 389 8,000 -420 Descending FlightAware
03:50AM 50.1190 8.5610 65° Northeast 339 390 8,000  Level FlightAware
03:50AM 50.1370 8.6140 62° Northeast 341 392 8,000  Level FlightAware
03:50AM 50.1480 8.6500 64° Northeast 336 387 8,000  Level FlightAware
03:51AM 50.1690 8.7150 63° Northeast 338 389 8,000  Level FlightAware
03:51AM 50.1860 8.7660 62° Northeast 324 373 8,000  Level FlightAware
03:52AM 50.2050 8.8230 62° Northeast 292 336 8,000  Level FlightAware
03:52AM 50.2210 8.8790 66° East 264 304 8,000  Level FlightAware
03:53AM 50.2320 8.9240 69° East 262 302 8,000  Level FlightAware
03:53AM 50.2460 8.9770 68° East 264 304 8,000  Level FlightAware
03:53AM 50.2510 9.0000 71° East 262 302 8,000  Level FlightAware
03:54AM 50.2640 9.0480 67° East 265 305 8,000  Level FlightAware
03:54AM 50.2700 9.0720 69° East 264 304 8,000  Level FlightAware
03:55AM 50.2840 9.1260 68° East 265 305 8,000  Level FlightAware
03:55AM 50.2950 9.1690 68° East 267 307 8,000  Level FlightAware
03:55AM 50.2990 9.1960 77° East 270 311 8,000  Level FlightAware
03:56AM 50.2850 9.2440 115° Southeast 266 306 8,000 -360 Level FlightAware
03:56AM 50.2620 9.2770 137° Southeast 262 302 7,700 -900 Descending FlightAware
03:56AM 50.2450 9.2870 159° South 246 283 7,400 -1,200 Descending FlightAware
03:57AM 50.2280 9.2830 189° South 230 265 7,100 -1,020 Descending FlightAware
03:57AM 50.2170 9.2680 221° Southwest 215 247 6,900 -1,200 Descending FlightAware
03:57AM 50.2060 9.2500 226° Southwest 218 251 6,500 -1,200 Descending FlightAware
03:58AM 50.1900 9.2200 230° Southwest 214 246 6,100 -780 Descending FlightAware
03:58AM 50.1780 9.1770 246° West 196 226 5,800 -600 Descending FlightAware
03:59AM 50.1710 9.1450 251° West 183 211 5,600 -480 Descending FlightAware
03:59AM 50.1630 9.1080 251° West 175 201 5,400 -360 Descending FlightAware
03:59AM 50.1560 9.0780 250° West 172 198 5,300 -480 Descending FlightAware
04:00AM 50.1480 9.0430 250° West 167 192 5,000 -480 Descending FlightAware
04:00AM 50.1420 9.0190 249° West 165 190 4,900 -360 Descending FlightAware
04:01AM 50.1320 8.9770 250° West 167 192 4,700 -300 Descending FlightAware
04:01AM 50.1250 8.9460 251° West 166 191 4,600 -240 Descending FlightAware
04:02AM 50.1180 8.9170 249° West 164 189 4,500 -360 Descending FlightAware
04:02AM 50.1110 8.8840 252° West 162 186 4,300 -540 Descending FlightAware
04:03AM 50.1030 8.8510 249° West 165 190 4,000 -780 Descending FlightAware
04:03AM 50.0960 8.8220 249° West 160 184 3,600 -900 Descending FlightAware
04:03AM 50.0920 8.8070 247° West 161 185 3,400 -900 Descending FlightAware
04:04AM 50.0860 8.7790 252° West 161 185 3,000 -1,020 Descending FlightAware
04:04AM 50.0780 8.7460 249° West 161 185 2,500 -900 Descending FlightAware
04:05AM 50.0700 8.7130 249° West 154 177 2,100 -840 Descending FlightAware
04:05AM 50.0670 8.6990 252° West 145 167 1,900 -780 Descending FlightAware
04:06AM 50.0610 8.6750 249° West 134 154 1,600 -780 Descending FlightAware
04:06AM 50.0580 8.6630 249° West 136 157 1,400 -840 Descending FlightAware
04:06AM 50.0510 8.6340 249° West 137 158 1,000 -840 Descending FlightAware
04:07AM 50.0480 8.6190 253° West 140 161 800 -780 Descending FlightAware
04:07AM 50.0430 8.5990 249° West 145 167 500 -720 Descending FlightAware